Terminal Aerodrome Forecast
Issued by NWS

Home | Current Version | Previous Version | Text Only | Print | Product List | Glossary On
Versions: 1 2 3 4 5 6 7 8 9 10 11 12 13 14 15 16 17 18 19 20 21 22 23 24 25 26 27 28 29 30 31 32 33 34
000
FTUS43 KGLD 282343
TAFMCK
TAF
KMCK 282343Z 2900/2924 04007KT P6SM OVC070
     FM290800 05009KT P6SM VCSH OVC060
     FM290900 05010KT P6SM RA OVC015
     FM291400 05011KT 2SM -RA OVC003
     FM291800 06014G21KT 2SM RA OVC003
     FM292300 03013G20KT 1SM RA OVC003=

USA.gov is the U.S. government's official web portal to all federal, state and local government web resources and services.